Tropical Cyclones
[Index]
Main Index Home Page Stock Weather Photos Extreme Storms Discussion Storm News and Storm Chasing Reports Tropical Cyclones / Hurricanes / Typhoons Weather Data and Links Wild Fires / Bushfires Weather Observation Techniques Weather Picture Catalogue Tornado Pictures and Reports Stock Video Footage and DVDs for sale
Season 1975-1976 Tropical Cyclone COLIN Track Map
Season 1975-1976 Summaries: [BoM-AU] [JTWC-AU] [JTWC-SIO] [JTWC-SPAC] [JTWC-SH]
<<- Previous TC | BoM 1975-1976 Season | Next TC ->>

click for intensity scale information  Lat/long Grid: Show Hide

 Date Labels: Show Hide

Bureau of Meteorology Tropical Cyclone Data

Name: COLIN
Number: 555 / 197576_11

25 Feb 1976 17:00 UTC to 04 Mar 1976 11:00 UTC

    date/time    lat    long    hPa   cat  kts
1976-02-25 17   10.3   155.5   1002                     
1976-02-25 23   10.4   156.4    998                     
1976-02-26 05   11.4   156.5    994    1                
1976-02-26 11   11.6   155.9    993    1                
1976-02-26 17   11.4   155.4    994    1                
1976-02-26 23   10.7   155.0    994    1                
1976-02-27 05   11.0   154.5    993    1                
1976-02-27 08   11.4   154.4    993    1                
1976-02-27 11   11.7   154.4    990    1                
1976-02-27 17   11.9   154.5    987    1                
1976-02-27 23   12.2   154.5    983    2                
1976-02-28 05   12.8   154.6    979    2                
1976-02-28 11   13.4   154.6    974    2                
1976-02-28 17   14.2   154.7    968    3                
1976-02-28 23   15.2   155.0    964    3                
1976-02-29 05   16.5   155.4    961    3                
1976-02-29 11   17.8   155.7    958    3                
1976-02-29 17   19.0   156.0    956    3                
1976-02-29 23   20.2   156.2    954    4                
1976-03-01 05   21.5   156.4    954    4                
1976-03-01 11   22.5   156.1    954    4                
1976-03-01 14   23.0   155.9    954    4                
1976-03-01 17   23.3   155.7    954    4                
1976-03-01 20   23.7   155.6    954    4                
1976-03-01 23   24.1   155.6    955    4                
1976-03-02 05   25.0   155.7    955    4                
1976-03-02 11   25.9   155.9    957    3                
1976-03-02 17   26.8   156.1    960    3                
1976-03-02 23   27.5   156.4    964    3                
1976-03-03 05   28.3   156.8    968    3                
1976-03-03 11   29.2   157.3    972    2                
1976-03-03 17   30.3   157.8    976    2                
1976-03-03 20   30.9   158.1    979    2                
1976-03-03 23   31.5   158.4    982    2                
1976-03-04 02   32.2   158.6    985    2                
1976-03-04 05   32.8   158.7    988    1                
1976-03-04 11   33.8   158.9    995    1                
Winds are 10-min average.

Tropical cyclone tracks developed by Michael Bath using data from the Bureau of Meteorology and Google Maps.


[Australian Severe Weather index] [Copyright Notice] [Email Contacts] [Search This Site] [Privacy Policy]
Document: tropical_cyclone_colin.htm Updated: 30 May 2013